Time;durP1;ratioP1;P1;durP2;ratioP2;P2;SDS_P1;SDS_P2;PMS_P1;PMS_P2;Temp;Humidity;BMP_temperature;BMP_pressure;BME280_temperature;BME280_humidity;BME280_pressure;Samples;Min_cycle;Max_cycle;Signal;HPM_P1;HPM_P2
2021/10/28 00:12:12;;;;;;;7.70;5.97;;;13.90;99.90;;;;;;5091944;28;20470;-51
2021/10/28 00:12:45;;;;;;;6.57;5.97;;;14.10;99.90;;;;;;5092027;28;20511;-51
2021/10/28 00:15:23;;;;;;;7.93;5.47;;;13.60;99.90;;;;;;5092061;28;20454;-51
2021/10/28 00:18:05;;;;;;;6.73;6.00;;;13.50;99.90;;;;;;5092063;28;20469;-50
2021/10/28 00:20:34;;;;;;;8.30;5.33;;;13.50;99.90;;;;;;5092122;28;20447;-52
2021/10/28 00:23:03;;;;;;;5.93;5.30;;;13.40;99.90;;;;;;5090539;28;20806;-52
2021/10/28 00:25:29;;;;;;;8.47;5.87;;;13.40;99.90;;;;;;5092171;28;20448;-52
2021/10/28 00:27:59;;;;;;;6.73;6.10;;;13.20;99.90;;;;;;5091306;28;20489;-52
2021/10/28 00:30:27;;;;;;;7.50;5.30;;;13.30;99.90;;;;;;5073799;28;20463;-52
2021/10/28 00:32:55;;;;;;;6.80;5.87;;;13.30;99.90;;;;;;5073581;28;20519;-52
2021/10/28 00:35:24;;;;;;;5.93;5.30;;;13.70;99.90;;;;;;5092061;28;20462;-52
2021/10/28 00:37:53;;;;;;;10.23;5.87;;;13.00;99.90;;;;;;5091360;28;20459;-51
2021/10/28 00:40:27;;;;;;;6.87;5.47;;;13.20;99.90;;;;;;5091701;28;20459;-50
2021/10/28 00:42:58;;;;;;;5.83;5.20;;;13.30;99.90;;;;;;5073519;28;20490;-51
2021/10/28 00:45:26;;;;;;;8.33;5.27;;;13.10;99.90;;;;;;5091416;28;20449;-52
2021/10/28 00:47:52;;;;;;;7.30;5.97;;;13.10;99.90;;;;;;5073043;28;20444;-52
2021/10/28 00:50:19;;;;;;;6.23;5.60;;;13.20;99.90;;;;;;5091576;28;20972;-52
2021/10/28 00:52:46;;;;;;;7.93;6.13;;;13.20;99.90;;;;;;5091799;28;20567;-52
2021/10/28 00:55:13;;;;;;;6.67;5.90;;;13.30;99.90;;;;;;5091723;28;20546;-51
2021/10/28 00:57:41;;;;;;;6.97;5.30;;;13.50;99.90;;;;;;5091172;28;20626;-49
2021/10/28 01:00:09;;;;;;;6.80;6.07;;;12.60;99.90;;;;;;5073319;28;20537;-51
2021/10/28 01:02:36;;;;;;;7.37;6.43;;;13.00;99.90;;;;;;5091404;28;20535;-52
2021/10/28 01:05:03;;;;;;;10.10;6.70;;;13.00;99.90;;;;;;5091231;28;20839;-51
2021/10/28 01:07:30;;;;;;;8.30;6.47;;;12.90;99.90;;;;;;5090119;28;20436;-52
2021/10/28 01:09:57;;;;;;;6.60;6.00;;;12.90;99.90;;;;;;5090884;28;20527;-51
2021/10/28 01:12:24;;;;;;;6.83;6.13;;;12.60;99.90;;;;;;5073042;28;20556;-51
2021/10/28 01:14:52;;;;;;;7.43;6.30;;;13.10;99.90;;;;;;5091304;28;20535;-51
2021/10/28 01:17:19;;;;;;;7.57;6.77;;;13.20;99.90;;;;;;5073289;28;20487;-52
2021/10/28 01:19:50;;;;;;;7.47;6.77;;;12.90;99.90;;;;;;5091114;28;21035;-51
2021/10/28 01:22:17;;;;;;;8.20;6.10;;;12.80;99.90;;;;;;5091259;28;20486;-50
2021/10/28 01:24:46;;;;;;;7.23;6.63;;;12.80;99.90;;;;;;5091323;28;20467;-52
2021/10/28 01:27:13;;;;;;;9.47;7.40;;;12.80;99.90;;;;;;5091231;28;20436;-51
2021/10/28 01:29:43;;;;;;;8.63;7.83;;;12.90;99.90;;;;;;5072619;28;20483;-52
2021/10/28 01:32:12;;;;;;;8.67;7.40;;;12.70;99.90;;;;;;5073090;28;20519;-52
2021/10/28 01:34:43;;;;;;;8.27;7.57;;;12.70;99.90;;;;;;5091415;28;20545;-52
2021/10/28 01:37:15;;;;;;;8.40;7.50;;;13.00;99.90;;;;;;5091223;28;20428;-52
2021/10/28 01:39:42;;;;;;;7.87;7.17;;;12.70;99.90;;;;;;5072803;28;20514;-52
2021/10/28 01:42:11;;;;;;;8.33;7.53;;;12.20;99.90;;;;;;5094915;28;20972;-52
2021/10/28 01:44:41;;;;;;;8.53;7.63;;;13.10;99.90;;;;;;5094932;28;20522;-52
2021/10/28 01:47:08;;;;;;;8.77;6.87;;;13.00;99.90;;;;;;5077131;28;20918;-51
2021/10/28 01:49:35;;;;;;;7.60;6.90;;;12.70;99.90;;;;;;5094746;28;20484;-52
2021/10/28 01:52:03;;;;;;;8.90;7.70;;;12.20;99.90;;;;;;5076695;28;20537;-51
2021/10/28 01:54:31;;;;;;;9.13;8.20;;;12.70;99.90;;;;;;5094633;28;20448;-51
2021/10/28 01:56:59;;;;;;;7.73;6.77;;;12.70;99.90;;;;;;5094719;28;20525;-51
2021/10/28 01:59:26;;;;;;;9.57;8.67;;;12.70;99.90;;;;;;5094223;28;20438;-52
2021/10/28 02:01:52;;;;;;;8.70;7.93;;;13.20;99.90;;;;;;5093194;28;20468;-52
2021/10/28 02:04:19;;;;;;;10.40;7.80;;;13.00;99.90;;;;;;5094255;28;20543;-51
2021/10/28 02:06:46;;;;;;;9.20;8.37;;;13.00;99.90;;;;;;5094434;28;20439;-51
2021/10/28 02:09:13;;;;;;;8.50;7.80;;;13.00;99.90;;;;;;5075811;28;20542;-50
2021/10/28 02:11:41;;;;;;;9.00;8.20;;;13.00;99.90;;;;;;5094285;28;20909;-52
2021/10/28 02:14:07;;;;;;;9.17;8.00;;;12.60;99.90;;;;;;5094201;28;20479;-52
2021/10/28 02:16:36;;;;;;;13.13;9.60;;;12.50;99.90;;;;;;5094243;28;20438;-52
2021/10/28 02:19:04;;;;;;;12.67;9.47;;;12.70;99.90;;;;;;5093943;28;20941;-52
2021/10/28 02:21:31;;;;;;;10.67;9.67;;;12.50;99.90;;;;;;5092885;28;20917;-52
2021/10/28 02:24:00;;;;;;;10.03;9.13;;;12.80;99.90;;;;;;5075807;28;20442;-51
2021/10/28 02:26:27;;;;;;;10.83;9.83;;;12.80;99.90;;;;;;5075872;28;20444;-52
2021/10/28 02:28:56;;;;;;;11.33;10.07;;;12.50;99.90;;;;;;5093687;28;20710;-52
2021/10/28 02:31:24;;;;;;;13.03;10.20;;;12.20;99.90;;;;;;5093981;28;20535;-51
2021/10/28 02:33:53;;;;;;;12.03;10.40;;;12.50;99.90;;;;;;5093851;28;20537;-52
2021/10/28 02:36:20;;;;;;;11.10;10.00;;;12.20;99.90;;;;;;5093872;28;20818;-52
2021/10/28 02:38:47;;;;;;;13.00;11.70;;;12.50;99.90;;;;;;5093423;28;20442;-52
2021/10/28 02:41:14;;;;;;;11.50;10.40;;;12.60;99.90;;;;;;5092510;28;20445;-52
2021/10/28 02:43:41;;;;;;;12.50;11.30;;;11.80;99.90;;;;;;5092481;28;20437;-52
2021/10/28 02:46:09;;;;;;;14.00;12.60;;;12.20;99.90;;;;;;5093588;28;20452;-52
2021/10/28 02:48:36;;;;;;;14.67;12.03;;;12.30;99.90;;;;;;5093335;28;20524;-49
2021/10/28 02:51:03;;;;;;;13.23;11.93;;;12.00;99.90;;;;;;5093337;28;20462;-50
2021/10/28 02:53:30;;;;;;;11.73;10.63;;;12.40;99.90;;;;;;5093460;28;20509;-49
2021/10/28 02:55:56;;;;;;;15.63;13.20;;;12.30;99.90;;;;;;5093419;28;20492;-50
2021/10/28 02:58:23;;;;;;;13.27;11.97;;;12.20;99.90;;;;;;5075056;28;20455;-49
2021/10/28 03:00:50;;;;;;;13.87;12.50;;;12.00;99.90;;;;;;5093513;28;20509;-50
2021/10/28 03:03:18;;;;;;;14.57;13.07;;;11.50;99.90;;;;;;5093300;28;20518;-50
2021/10/28 03:05:45;;;;;;;13.70;12.40;;;12.20;99.90;;;;;;5093053;28;20512;-49
2021/10/28 03:08:12;;;;;;;15.03;12.30;;;11.70;99.90;;;;;;5092859;28;20958;-50
2021/10/28 03:10:41;;;;;;;14.67;13.03;;;12.00;99.90;;;;;;5093348;28;20471;-50
2021/10/28 03:13:07;;;;;;;13.47;12.07;;;11.40;99.90;;;;;;5091830;28;20475;-50
2021/10/28 03:15:36;;;;;;;13.90;12.50;;;10.80;99.90;;;;;;5091706;28;20471;-50
2021/10/28 03:26:22;;;;;;;14.70;13.10;;;11.60;99.90;;;;;;5017320;28;20497;-49
2021/10/28 03:28:48;;;;;;;15.40;12.63;;;11.60;99.90;;;;;;5092483;28;20430;-50
2021/10/28 03:31:15;;;;;;;15.00;12.17;;;11.90;99.90;;;;;;5093002;28;20522;-51
2021/10/28 03:33:46;;;;;;;13.07;11.87;;;11.80;99.90;;;;;;5092718;28;20993;-51
2021/10/28 03:36:22;;;;;;;13.33;11.87;;;11.60;99.90;;;;;;5092647;28;20479;-51
2021/10/28 03:38:56;;;;;;;13.23;11.93;;;11.50;99.90;;;;;;5091157;28;20463;-51
2021/10/28 03:55:30;;;;;;;13.90;12.40;;;11.70;99.90;;;;;;5092163;28;20471;-50
2021/10/28 04:06:56;;;;;;;15.73;14.03;;;11.30;99.90;;;;;;5089017;28;20523;-52
2021/10/28 04:20:55;;;;;;;14.70;13.20;;;11.10;99.90;;;;;;5077818;28;20985;-50
2021/10/28 04:28:55;;;;;;;13.47;12.07;;;11.00;99.90;;;;;;5088719;28;20429;-50
2021/10/28 04:31:24;;;;;;;16.57;14.77;;;11.30;99.90;;;;;;5088501;28;20867;-50
2021/10/28 04:33:50;;;;;;;14.50;13.00;;;11.40;99.90;;;;;;5087125;28;20450;-51
2021/10/28 04:36:17;;;;;;;14.53;13.00;;;11.00;99.90;;;;;;5088062;28;20805;-52
2021/10/28 04:38:45;;;;;;;14.90;12.87;;;11.30;99.90;;;;;;5087915;28;20935;-51
2021/10/28 04:41:12;;;;;;;13.83;12.43;;;11.40;99.90;;;;;;5087069;28;20532;-51
2021/10/28 04:43:39;;;;;;;13.93;12.63;;;11.10;99.90;;;;;;5088086;28;20429;-51
2021/10/28 04:46:05;;;;;;;14.13;12.63;;;11.20;99.90;;;;;;5087849;28;20502;-52
2021/10/28 04:48:32;;;;;;;13.83;12.37;;;11.20;99.90;;;;;;5085667;28;21000;-51
2021/10/28 04:51:07;;;;;;;13.60;11.70;;;11.10;99.90;;;;;;5086566;28;20450;-51
2021/10/28 04:53:38;;;;;;;13.13;11.83;;;11.10;99.90;;;;;;5087752;28;20939;-51
2021/10/28 04:56:06;;;;;;;13.90;12.20;;;11.00;99.90;;;;;;5085931;28;20588;-51
2021/10/28 04:58:33;;;;;;;14.37;12.87;;;11.10;99.90;;;;;;5087413;28;20461;-52
2021/10/28 05:01:00;;;;;;;14.90;12.23;;;11.10;99.90;;;;;;5087760;28;20438;-51
2021/10/28 05:03:27;;;;;;;14.20;12.70;;;11.20;99.90;;;;;;5087709;28;20861;-52
2021/10/28 05:05:56;;;;;;;14.53;12.90;;;11.00;99.90;;;;;;5087257;28;20456;-51
2021/10/28 05:08:26;;;;;;;17.63;12.70;;;11.00;99.90;;;;;;5085445;28;20498;-51
2021/10/28 05:10:52;;;;;;;15.97;13.73;;;10.90;99.90;;;;;;5087390;28;20435;-51
2021/10/28 05:13:21;;;;;;;14.00;12.63;;;11.40;99.90;;;;;;5086097;28;20548;-50
2021/10/28 05:15:49;;;;;;;17.60;13.87;;;11.00;99.90;;;;;;5085423;28;20852;-51
2021/10/28 05:18:17;;;;;;;17.83;14.53;;;11.30;99.90;;;;;;5072075;28;20946;-51
2021/10/28 05:20:45;;;;;;;17.20;14.57;;;11.00;99.90;;;;;;5073785;28;20546;-51
2021/10/28 05:23:14;;;;;;;16.07;14.37;;;10.80;99.90;;;;;;5072502;28;20526;-51
2021/10/28 05:25:40;;;;;;;15.47;13.83;;;11.30;99.90;;;;;;5073563;28;20911;-51
2021/10/28 05:28:07;;;;;;;14.77;13.07;;;10.90;99.90;;;;;;5073375;28;20485;-51
2021/10/28 05:30:36;;;;;;;15.20;13.60;;;10.40;99.90;;;;;;5073983;28;20444;-51
2021/10/28 05:33:03;;;;;;;15.03;13.40;;;10.80;99.90;;;;;;5073714;28;20492;-51
2021/10/28 05:35:30;;;;;;;12.70;11.37;;;10.90;99.90;;;;;;5071959;28;20888;-52
2021/10/28 05:37:59;;;;;;;17.93;13.83;;;10.80;99.90;;;;;;5072512;28;20408;-52
2021/10/28 05:40:26;;;;;;;16.40;13.70;;;10.80;99.90;;;;;;5073038;28;20500;-51
2021/10/28 05:42:56;;;;;;;19.47;14.90;;;10.50;99.90;;;;;;5070896;28;20544;-52
2021/10/28 05:45:23;;;;;;;15.93;13.87;;;10.80;99.90;;;;;;5072558;28;20470;-51
2021/10/28 05:47:52;;;;;;;18.87;16.30;;;10.70;99.90;;;;;;5072651;28;20437;-52
2021/10/28 05:50:20;;;;;;;17.83;14.23;;;10.80;99.90;;;;;;5072415;28;20446;-51
2021/10/28 05:52:49;;;;;;;14.93;13.10;;;11.20;99.90;;;;;;5072739;28;20800;-51
2021/10/28 05:55:16;;;;;;;19.57;14.70;;;10.80;99.90;;;;;;5070656;28;20456;-52
2021/10/28 05:57:43;;;;;;;17.40;14.57;;;10.80;99.90;;;;;;5072958;28;20475;-52
2021/10/28 06:00:11;;;;;;;15.70;13.00;;;10.80;99.90;;;;;;5072928;28;20496;-51
2021/10/28 06:02:38;;;;;;;14.00;12.53;;;10.60;99.90;;;;;;5073236;28;20753;-51
2021/10/28 06:05:08;;;;;;;15.47;13.80;;;10.30;99.90;;;;;;5071682;28;20872;-51
2021/10/28 06:07:35;;;;;;;17.30;14.20;;;10.70;99.90;;;;;;5071480;28;20482;-52
2021/10/28 06:10:03;;;;;;;15.57;13.03;;;11.20;99.90;;;;;;5071572;28;20428;-52
2021/10/28 06:12:34;;;;;;;13.97;12.57;;;11.00;99.90;;;;;;5071550;28;20532;-52
2021/10/28 06:15:02;;;;;;;14.43;12.97;;;10.70;99.90;;;;;;5072849;28;20453;-53
2021/10/28 06:17:32;;;;;;;18.10;14.70;;;10.70;99.90;;;;;;5072272;28;20514;-51
2021/10/28 06:19:59;;;;;;;18.70;14.60;;;10.80;99.90;;;;;;5072678;28;20464;-51
2021/10/28 06:22:28;;;;;;;16.03;14.20;;;10.90;99.90;;;;;;5072607;28;20396;-52
2021/10/28 06:24:56;;;;;;;15.57;12.83;;;10.70;99.90;;;;;;5071755;28;20552;-51
2021/10/28 06:27:23;;;;;;;15.80;14.10;;;10.50;99.90;;;;;;5071770;28;20500;-52
2021/10/28 06:29:50;;;;;;;22.70;15.17;;;11.10;99.90;;;;;;5071548;28;20940;-51
2021/10/28 06:32:19;;;;;;;18.80;14.70;;;11.20;99.90;;;;;;5072862;28;20407;-51
2021/10/28 06:34:47;;;;;;;19.50;14.63;;;10.50;99.90;;;;;;5070966;28;20446;-51
2021/10/28 06:37:14;;;;;;;15.90;14.20;;;10.70;99.90;;;;;;5072150;28;20449;-52
2021/10/28 06:39:42;;;;;;;19.23;13.77;;;10.60;99.90;;;;;;5071619;28;20442;-52
2021/10/28 06:42:13;;;;;;;15.90;14.00;;;10.70;99.90;;;;;;5070845;28;20855;-53
2021/10/28 06:44:44;;;;;;;20.97;15.27;;;11.00;99.90;;;;;;5071813;28;20458;-54
2021/10/28 06:47:10;;;;;;;16.13;14.40;;;11.00;99.90;;;;;;5071852;28;20485;-52
2021/10/28 06:49:40;;;;;;;20.30;14.03;;;11.10;99.90;;;;;;5071651;28;20410;-52
2021/10/28 06:52:10;;;;;;;16.50;14.03;;;10.80;99.90;;;;;;5071925;28;20856;-52
2021/10/28 06:54:38;;;;;;;18.30;14.30;;;11.10;99.90;;;;;;5071899;28;20749;-53
2021/10/28 06:57:36;;;;;;;17.77;15.40;;;11.20;99.90;;;;;;5071525;28;20445;-52
2021/10/28 07:02:49;;;;;;;17.73;15.27;;;11.20;99.90;;;;;;5071225;28;20442;-52
2021/10/28 07:05:15;;;;;;;17.23;14.73;;;10.80;99.90;;;;;;5071192;28;20525;-52
2021/10/28 07:07:42;;;;;;;20.97;16.10;;;11.10;99.90;;;;;;5071357;28;20435;-52
2021/10/28 07:10:13;;;;;;;17.33;14.43;;;10.60;99.90;;;;;;5071296;28;20927;-52
2021/10/28 07:12:48;;;;;;;16.60;14.90;;;10.80;99.90;;;;;;5069966;28;20474;-53
2021/10/28 07:15:19;;;;;;;25.83;17.57;;;10.80;99.90;;;;;;5071601;28;20810;-54
2021/10/28 07:18:01;;;;;;;17.67;15.47;;;10.60;99.90;;;;;;5069632;28;20445;-53
2021/10/28 07:26:28;;;;;;;17.00;14.30;;;10.90;99.90;;;;;;5060441;28;20485;-51
2021/10/28 07:29:57;;;;;;;22.93;17.17;;;11.20;99.90;;;;;;5069620;28;20511;-52
2021/10/28 07:34:59;;;;;;;18.90;15.77;;;11.30;99.90;;;;;;5050221;28;20472;-52
2021/10/28 07:59:30;;;;;;;19.30;16.20;;;11.20;99.90;;;;;;5070002;28;20432;-53
2021/10/28 08:05:21;;;;;;;16.13;13.40;;;11.20;99.90;;;;;;5071103;28;20462;-53
2021/10/28 08:16:28;;;;;;;16.87;15.07;;;11.30;99.90;;;;;;5069824;28;20462;-53
2021/10/28 08:19:01;;;;;;;17.00;15.27;;;11.40;99.90;;;;;;5070262;28;20457;-53
2021/10/28 08:21:36;;;;;;;17.07;15.30;;;11.40;99.90;;;;;;5069601;28;20457;-53
2021/10/28 08:24:11;;;;;;;15.80;14.20;;;11.30;99.90;;;;;;5069536;28;20452;-53
2021/10/28 08:29:24;;;;;;;17.20;15.40;;;11.50;99.90;;;;;;5070541;28;20809;-53
2021/10/28 08:31:53;;;;;;;16.13;14.23;;;11.50;99.90;;;;;;5070468;28;20430;-53
2021/10/28 08:34:26;;;;;;;18.37;15.80;;;11.40;99.90;;;;;;5070196;28;20453;-53
2021/10/28 08:36:54;;;;;;;18.73;15.87;;;11.60;99.90;;;;;;5070306;28;20537;-51
2021/10/28 08:39:21;;;;;;;21.37;15.17;;;11.60;99.90;;;;;;5068974;28;20445;-52
2021/10/28 08:41:49;;;;;;;21.57;15.90;;;11.60;99.90;;;;;;5070581;28;20520;-53
2021/10/28 08:44:19;;;;;;;27.33;15.47;;;12.00;99.90;;;;;;5068698;28;20528;-52
2021/10/28 08:46:48;;;;;;;16.70;14.30;;;11.70;99.90;;;;;;5070639;28;20449;-52
2021/10/28 08:49:20;;;;;;;19.20;14.67;;;12.30;99.90;;;;;;5070207;28;20463;-51
2021/10/28 08:51:58;;;;;;;16.93;15.13;;;11.80;99.90;;;;;;5070197;28;20452;-53
2021/10/28 08:54:47;;;;;;;14.27;12.77;;;11.80;99.90;;;;;;5073074;28;20466;-51
2021/10/28 09:25:33;;;;;;;19.50;14.13;;;12.10;99.90;;;;;;5072209;28;20541;-52
2021/10/28 09:28:05;;;;;;;24.83;16.97;;;12.40;99.90;;;;;;5073514;28;20514;-52
2021/10/28 09:30:45;;;;;;;18.60;14.10;;;12.60;99.90;;;;;;5073927;28;20878;-52
2021/10/28 09:33:19;;;;;;;15.47;13.67;;;12.30;99.90;;;;;;5071959;28;20471;-52
2021/10/28 09:36:13;;;;;;;19.87;14.47;;;12.40;99.90;;;;;;5073062;28;20425;-51
2021/10/28 09:44:46;;;;;;;16.20;13.00;;;12.60;99.90;;;;;;5073346;28;20458;-51
2021/10/28 09:47:34;;;;;;;18.47;13.77;;;12.60;99.90;;;;;;5073311;28;20497;-52
2021/10/28 09:50:09;;;;;;;15.57;13.83;;;12.60;99.90;;;;;;5073013;28;21078;-52
2021/10/28 09:52:47;;;;;;;16.50;14.20;;;12.70;99.90;;;;;;5073160;28;20479;-52
2021/10/28 09:58:02;;;;;;;14.43;13.00;;;12.70;99.90;;;;;;5072421;28;20451;-52
2021/10/28 10:00:38;;;;;;;17.23;15.43;;;12.50;99.90;;;;;;5073156;28;20851;-52
2021/10/28 10:03:10;;;;;;;14.47;12.83;;;12.80;99.90;;;;;;5072615;28;20832;-52
2021/10/28 10:05:39;;;;;;;16.53;14.43;;;12.70;99.90;;;;;;5072936;28;20546;-52
2021/10/28 10:08:07;;;;;;;16.03;14.17;;;12.90;99.90;;;;;;5071239;28;20452;-52
2021/10/28 10:10:35;;;;;;;18.53;13.10;;;12.90;99.90;;;;;;5070986;28;20437;-52
2021/10/28 10:13:04;;;;;;;16.93;13.97;;;13.00;99.90;;;;;;5073030;28;20527;-52
2021/10/28 10:15:31;;;;;;;17.00;14.07;;;13.00;99.90;;;;;;5072748;28;20918;-52
2021/10/28 10:18:03;;;;;;;15.50;13.07;;;12.80;99.90;;;;;;5072843;28;20478;-52
2021/10/28 10:20:35;;;;;;;13.63;11.77;;;13.20;99.90;;;;;;5071543;28;20457;-51
2021/10/28 10:25:57;;;;;;;12.20;10.93;;;13.20;99.90;;;;;;5070624;28;20472;-52
2021/10/28 10:29:19;;;;;;;12.93;11.27;;;13.20;99.90;;;;;;5072292;28;20432;-51
2021/10/28 11:28:33;;;;;;;15.00;11.10;;;14.30;99.90;;;;;;5014461;28;20458;-53
2021/10/28 12:16:43;;;;;;;13.80;10.80;;;14.50;99.90;;;;;;5070744;28;20438;-51
2021/10/28 12:22:24;;;;;;;13.47;10.70;;;14.60;99.90;;;;;;5070374;28;20430;-51
2021/10/28 12:44:50;;;;;;;12.80;11.50;;;15.00;99.90;;;;;;5073950;28;20949;-52
2021/10/28 12:47:46;;;;;;;15.20;10.40;;;14.90;99.90;;;;;;5073987;28;20483;-52
2021/10/28 12:53:14;;;;;;;11.30;8.83;;;14.80;99.90;;;;;;5074351;28;20692;-51
2021/10/28 13:04:24;;;;;;;11.47;9.33;;;15.00;99.90;;;;;;5061441;28;20493;-55
2021/10/28 13:48:26;;;;;;;13.00;9.97;;;14.80;99.90;;;;;;5072842;28;20895;-52
2021/10/28 13:53:47;;;;;;;14.13;8.20;;;15.30;99.90;;;;;;5064019;28;20524;-52
2021/10/28 14:33:04;;;;;;;8.57;6.50;;;15.10;99.90;;;;;;5070905;28;20430;-52
2021/10/28 14:38:35;;;;;;;10.50;7.27;;;15.00;99.90;;;;;;5070479;28;20783;-52
2021/10/28 15:28:11;;;;;;;8.00;7.13;;;14.90;99.90;;;;;;5070547;28;20469;-52
2021/10/28 15:36:16;;;;;;;9.00;7.90;;;14.50;99.90;;;;;;5071650;28;20441;-52
2021/10/28 15:38:53;;;;;;;11.30;8.60;;;14.70;99.90;;;;;;5070910;28;20467;-51
2021/10/28 15:53:07;;;;;;;15.70;10.53;;;14.50;99.90;;;;;;5070829;28;20433;-51
2021/10/28 16:01:40;;;;;;;11.67;10.13;;;14.60;99.90;;;;;;5070592;28;20437;-52
2021/10/28 16:23:28;;;;;;;14.63;12.63;;;14.00;99.90;;;;;;5071029;28;20468;-52
2021/10/28 16:25:55;;;;;;;18.77;12.70;;;14.00;99.90;;;;;;5070877;28;20487;-52
2021/10/28 16:28:24;;;;;;;14.90;12.40;;;14.20;99.90;;;;;;5070676;28;20471;-52
2021/10/28 16:30:51;;;;;;;16.10;12.93;;;13.90;99.90;;;;;;5069100;28;20464;-52
2021/10/28 16:33:22;;;;;;;13.23;11.70;;;14.00;99.90;;;;;;5071398;28;20472;-52
2021/10/28 16:35:49;;;;;;;13.90;11.20;;;13.90;99.90;;;;;;5071800;28;20545;-52
2021/10/28 16:38:18;;;;;;;13.60;11.10;;;13.80;99.90;;;;;;5070606;28;20471;-53
2021/10/28 16:40:45;;;;;;;14.97;11.93;;;13.90;99.90;;;;;;5068977;28;20445;-51
2021/10/28 16:43:11;;;;;;;14.07;12.10;;;13.90;99.90;;;;;;5070754;28;20468;-51
2021/10/28 16:45:38;;;;;;;13.70;12.10;;;13.90;99.90;;;;;;5070157;28;20474;-52
2021/10/28 16:48:06;;;;;;;12.13;10.80;;;13.80;99.90;;;;;;5070000;28;20465;-52
2021/10/28 16:50:35;;;;;;;15.90;13.17;;;13.90;99.90;;;;;;5070782;28;20762;-52
2021/10/28 16:53:02;;;;;;;20.13;12.60;;;13.80;99.90;;;;;;5070112;28;20525;-52
2021/10/28 16:55:29;;;;;;;14.27;11.37;;;13.80;99.90;;;;;;5069948;28;20492;-51
2021/10/28 16:57:59;;;;;;;15.20;12.53;;;13.70;99.90;;;;;;5069446;28;20430;-52
2021/10/28 17:00:27;;;;;;;15.50;12.80;;;13.80;99.90;;;;;;5070447;28;20434;-52
2021/10/28 17:02:56;;;;;;;15.77;12.80;;;13.80;99.90;;;;;;5069201;28;20457;-52
2021/10/28 17:05:24;;;;;;;12.23;10.77;;;13.70;99.90;;;;;;5069874;28;20461;-53
2021/10/28 17:07:52;;;;;;;15.40;12.37;;;13.70;99.90;;;;;;5068302;28;20577;-52
2021/10/28 17:10:19;;;;;;;14.07;12.60;;;13.90;99.90;;;;;;5068423;28;21002;-52
2021/10/28 17:12:45;;;;;;;14.70;12.40;;;13.60;99.90;;;;;;5071225;28;20483;-52
2021/10/28 17:15:15;;;;;;;17.10;11.97;;;13.60;99.90;;;;;;5073790;28;20472;-52
2021/10/28 17:17:44;;;;;;;13.10;11.70;;;13.70;99.90;;;;;;5071955;28;20452;-52
2021/10/28 17:20:14;;;;;;;13.67;12.40;;;13.70;99.90;;;;;;5074086;28;20445;-51
2021/10/28 17:22:48;;;;;;;14.47;13.07;;;13.60;99.90;;;;;;5074122;28;20446;-52
2021/10/28 17:25:26;;;;;;;14.30;12.67;;;13.60;99.90;;;;;;5073917;28;20480;-52
2021/10/28 17:27:52;;;;;;;14.03;12.40;;;13.30;99.90;;;;;;5073082;28;20987;-52
2021/10/28 17:30:19;;;;;;;13.73;12.00;;;13.70;99.90;;;;;;5072050;28;20457;-52
2021/10/28 17:32:46;;;;;;;13.80;11.40;;;13.50;99.90;;;;;;5071686;28;20450;-52
2021/10/28 17:35:14;;;;;;;15.03;12.67;;;13.50;99.90;;;;;;5073395;28;20986;-52
2021/10/28 17:37:41;;;;;;;16.83;11.67;;;13.50;99.90;;;;;;5071541;28;20895;-52
2021/10/28 17:40:10;;;;;;;13.13;11.30;;;13.50;99.90;;;;;;5072288;28;20422;-52
2021/10/28 17:42:39;;;;;;;19.43;12.63;;;13.50;99.90;;;;;;5073324;28;20436;-52
2021/10/28 17:45:08;;;;;;;12.50;11.20;;;13.40;99.90;;;;;;5073100;28;20982;-51
2021/10/28 17:47:35;;;;;;;13.23;11.47;;;13.50;99.90;;;;;;5073872;28;20581;-52
2021/10/28 17:50:02;;;;;;;13.87;12.40;;;13.00;99.90;;;;;;5072179;28;20788;-51
2021/10/28 17:52:29;;;;;;;13.20;11.50;;;13.40;99.90;;;;;;5073411;28;20503;-52
2021/10/28 17:54:56;;;;;;;12.83;11.33;;;13.50;99.90;;;;;;5073381;28;20452;-52
2021/10/28 17:57:22;;;;;;;12.80;10.43;;;13.40;99.90;;;;;;5071814;28;20859;-52
2021/10/28 17:59:50;;;;;;;13.77;10.33;;;13.60;99.90;;;;;;5073229;28;20427;-52
2021/10/28 18:02:17;;;;;;;11.77;10.23;;;13.40;99.90;;;;;;5073539;28;20434;-52
2021/10/28 18:04:47;;;;;;;12.20;10.90;;;13.40;99.90;;;;;;5073168;28;20463;-52
2021/10/28 18:07:14;;;;;;;12.37;11.03;;;13.10;99.90;;;;;;5073221;28;20621;-52
2021/10/28 18:09:44;;;;;;;14.33;11.13;;;13.30;99.90;;;;;;5073335;28;20407;-52
2021/10/28 18:12:11;;;;;;;12.93;10.73;;;13.30;99.90;;;;;;5073523;28;20434;-51
2021/10/28 18:14:38;;;;;;;13.60;11.80;;;13.30;99.90;;;;;;5073018;28;20807;-52
2021/10/28 18:17:08;;;;;;;13.07;11.13;;;13.30;99.90;;;;;;5071771;28;20509;-52
2021/10/28 18:19:34;;;;;;;14.53;13.13;;;13.30;99.90;;;;;;5072527;28;20988;-52
2021/10/28 18:22:01;;;;;;;15.70;12.73;;;13.20;99.90;;;;;;5072257;28;20441;-52
2021/10/28 18:24:28;;;;;;;15.20;11.60;;;13.30;99.90;;;;;;5073292;28;20525;-52
2021/10/28 18:26:55;;;;;;;17.20;15.50;;;13.10;99.90;;;;;;5072345;28;20455;-52
2021/10/28 18:29:22;;;;;;;14.03;12.60;;;13.30;99.90;;;;;;5072490;28;20459;-52
2021/10/28 18:31:49;;;;;;;14.13;12.63;;;13.00;99.90;;;;;;5072864;28;20432;-52
2021/10/28 18:34:17;;;;;;;18.87;12.50;;;13.00;99.90;;;;;;5072513;28;20475;-53
2021/10/28 18:36:45;;;;;;;18.50;13.60;;;12.70;99.90;;;;;;5072622;28;20433;-52
2021/10/28 18:39:13;;;;;;;16.67;13.30;;;12.90;99.90;;;;;;5071120;28;20536;-52
2021/10/28 18:41:41;;;;;;;13.40;11.97;;;12.90;99.90;;;;;;5072622;28;20433;-52
2021/10/28 18:44:10;;;;;;;14.13;12.53;;;12.90;99.90;;;;;;5071919;28;20875;-52
2021/10/28 18:46:37;;;;;;;14.60;13.00;;;12.40;99.90;;;;;;5072764;28;20826;-52
2021/10/28 18:49:05;;;;;;;17.30;13.00;;;12.80;99.90;;;;;;5071870;28;20480;-52
2021/10/28 18:51:35;;;;;;;15.73;13.17;;;12.80;99.90;;;;;;5072104;28;20559;-52
2021/10/28 18:54:03;;;;;;;15.07;12.37;;;12.70;99.90;;;;;;5070754;28;20460;-52
2021/10/28 18:56:30;;;;;;;16.80;13.57;;;12.40;99.90;;;;;;5071924;28;20461;-52
2021/10/28 18:58:57;;;;;;;14.50;11.33;;;12.70;99.90;;;;;;5071596;28;20455;-52
2021/10/28 19:01:25;;;;;;;15.20;11.93;;;12.50;99.90;;;;;;5072058;28;20430;-52
2021/10/28 19:03:54;;;;;;;13.23;11.13;;;12.60;99.90;;;;;;5071696;28;20495;-52
2021/10/28 19:06:25;;;;;;;14.20;12.80;;;12.80;99.90;;;;;;5072208;28;20927;-52
2021/10/28 19:08:53;;;;;;;12.80;11.47;;;12.50;99.90;;;;;;5070609;28;20553;-52
2021/10/28 19:11:20;;;;;;;11.87;10.67;;;12.50;99.90;;;;;;5072013;28;20524;-52
2021/10/28 19:13:48;;;;;;;12.73;11.53;;;12.50;99.90;;;;;;5071982;28;20441;-52
2021/10/28 19:16:16;;;;;;;12.40;11.20;;;12.50;99.90;;;;;;5071573;28;20462;-52
2021/10/28 19:18:46;;;;;;;16.60;11.97;;;12.40;99.90;;;;;;5070097;28;20523;-52
2021/10/28 19:21:14;;;;;;;13.77;11.63;;;12.40;99.90;;;;;;5071350;28;20978;-52
2021/10/28 19:23:41;;;;;;;15.20;11.67;;;12.50;99.90;;;;;;5071956;28;20438;-52
2021/10/28 19:26:10;;;;;;;13.93;9.97;;;12.40;99.90;;;;;;5070174;28;20486;-52
2021/10/28 19:28:37;;;;;;;14.90;10.37;;;12.40;99.90;;;;;;5071253;28;20476;-53
2021/10/28 19:31:06;;;;;;;13.40;10.77;;;12.30;99.90;;;;;;5071730;28;20427;-51
2021/10/28 19:33:40;;;;;;;12.73;10.40;;;12.30;99.90;;;;;;5071327;28;20836;-51
2021/10/28 19:36:11;;;;;;;11.37;10.17;;;12.30;99.90;;;;;;5070954;28;20460;-51
2021/10/28 19:38:49;;;;;;;14.63;10.73;;;12.30;99.90;;;;;;5070468;28;20521;-52
2021/10/28 19:46:44;;;;;;;13.63;10.97;;;12.20;99.90;;;;;;5071271;28;20859;-53
2021/10/28 19:49:16;;;;;;;14.13;10.23;;;11.80;99.90;;;;;;5071173;28;21014;-52
2021/10/28 19:51:43;;;;;;;12.33;10.77;;;12.30;99.90;;;;;;5071605;28;20532;-53
2021/10/28 19:54:12;;;;;;;13.97;11.07;;;12.20;99.90;;;;;;5070219;28;20438;-53
2021/10/28 19:56:44;;;;;;;13.13;11.10;;;12.40;99.90;;;;;;5070572;28;20461;-52
2021/10/28 19:59:13;;;;;;;11.70;10.50;;;12.10;99.90;;;;;;5071388;28;20422;-51
2021/10/28 20:01:46;;;;;;;14.47;10.93;;;12.20;99.90;;;;;;5071464;28;20478;-52
2021/10/28 20:04:28;;;;;;;11.37;9.37;;;11.80;99.90;;;;;;5071454;28;20430;-51
2021/10/28 20:07:16;;;;;;;13.50;10.40;;;12.40;99.90;;;;;;5070052;28;20488;-51
2021/10/28 20:20:46;;;;;;;9.47;8.37;;;12.20;99.90;;;;;;5069842;28;20440;-52
2021/10/28 20:23:15;;;;;;;12.93;8.47;;;12.00;99.90;;;;;;5071411;28;20477;-52
2021/10/28 20:25:42;;;;;;;13.70;9.70;;;11.50;99.90;;;;;;5071504;28;20520;-51
2021/10/28 20:28:12;;;;;;;12.17;9.03;;;12.00;99.90;;;;;;5071151;28;20464;-50
2021/10/28 20:30:49;;;;;;;10.87;9.60;;;11.90;99.90;;;;;;5071565;28;20432;-51
2021/10/28 20:33:17;;;;;;;11.80;9.37;;;11.90;99.90;;;;;;5071221;28;20446;-51
2021/10/28 20:38:29;;;;;;;18.47;10.90;;;11.80;99.90;;;;;;5071563;28;20523;-52